sensor_id;sensor_type;location;lat;lon;timestamp;pressure;altitude;pressure_sealevel;temperature;humidity
66742;BME280;53654;54.152;19.432;2023-11-18T00:00:57;101937.95;;;3.26;71.86
66742;BME280;53654;54.152;19.432;2023-11-18T00:03:43;101946.23;;;3.22;72.09
66742;BME280;53654;54.152;19.432;2023-11-18T00:06:11;101947.89;;;3.20;71.99
66742;BME280;53654;54.152;19.432;2023-11-18T00:08:40;101948.86;;;3.14;72.05
66742;BME280;53654;54.152;19.432;2023-11-18T00:11:08;101951.69;;;3.12;72.37
66742;BME280;53654;54.152;19.432;2023-11-18T00:13:39;101955.59;;;3.06;72.36
66742;BME280;53654;54.152;19.432;2023-11-18T00:16:08;101963.77;;;3.04;72.54
66742;BME280;53654;54.152;19.432;2023-11-18T00:18:40;101969.73;;;3.02;72.57
66742;BME280;53654;54.152;19.432;2023-11-18T00:21:08;101969.79;;;3.04;72.72
66742;BME280;53654;54.152;19.432;2023-11-18T00:23:36;101975.83;;;3.04;72.73
66742;BME280;53654;54.152;19.432;2023-11-18T00:26:05;101978.47;;;3.05;72.96
66742;BME280;53654;54.152;19.432;2023-11-18T00:28:34;101980.29;;;3.03;72.95
66742;BME280;53654;54.152;19.432;2023-11-18T00:31:03;101984.91;;;2.99;72.83
66742;BME280;53654;54.152;19.432;2023-11-18T00:33:32;101983.88;;;2.94;72.97
66742;BME280;53654;54.152;19.432;2023-11-18T00:36:00;101990.00;;;2.92;73.03
66742;BME280;53654;54.152;19.432;2023-11-18T00:38:29;101990.20;;;2.93;72.95
66742;BME280;53654;54.152;19.432;2023-11-18T00:40:57;101993.80;;;2.92;73.19
66742;BME280;53654;54.152;19.432;2023-11-18T00:43:25;101994.33;;;2.93;73.09
66742;BME280;53654;54.152;19.432;2023-11-18T00:45:54;101997.26;;;2.93;73.28
66742;BME280;53654;54.152;19.432;2023-11-18T00:48:22;102005.87;;;2.93;73.35
66742;BME280;53654;54.152;19.432;2023-11-18T00:50:51;102003.56;;;2.91;73.49
66742;BME280;53654;54.152;19.432;2023-11-18T00:53:19;102006.35;;;2.91;73.16
66742;BME280;53654;54.152;19.432;2023-11-18T00:55:48;102008.80;;;2.93;72.96
66742;BME280;53654;54.152;19.432;2023-11-18T00:58:16;102014.80;;;2.91;72.99
66742;BME280;53654;54.152;19.432;2023-11-18T01:00:45;102013.74;;;2.87;73.02
66742;BME280;53654;54.152;19.432;2023-11-18T01:03:13;102019.06;;;2.82;73.23
66742;BME280;53654;54.152;19.432;2023-11-18T01:05:41;102023.71;;;2.78;73.30
66742;BME280;53654;54.152;19.432;2023-11-18T01:08:09;102023.87;;;2.74;73.19
66742;BME280;53654;54.152;19.432;2023-11-18T01:10:37;102027.52;;;2.75;73.59
66742;BME280;53654;54.152;19.432;2023-11-18T01:13:06;102028.38;;;2.75;73.60
66742;BME280;53654;54.152;19.432;2023-11-18T01:15:34;102025.73;;;2.77;73.61
66742;BME280;53654;54.152;19.432;2023-11-18T01:18:02;102028.43;;;2.80;73.73
66742;BME280;53654;54.152;19.432;2023-11-18T01:20:31;102026.11;;;2.82;73.73
66742;BME280;53654;54.152;19.432;2023-11-18T01:22:59;102027.60;;;2.84;73.55
66742;BME280;53654;54.152;19.432;2023-11-18T01:25:28;102028.93;;;2.87;73.60
66742;BME280;53654;54.152;19.432;2023-11-18T01:27:57;102028.56;;;2.91;73.69
66742;BME280;53654;54.152;19.432;2023-11-18T01:30:25;102026.89;;;2.92;73.32
66742;BME280;53654;54.152;19.432;2023-11-18T01:32:54;102028.23;;;2.96;73.51
66742;BME280;53654;54.152;19.432;2023-11-18T01:35:23;102029.13;;;3.00;73.43
66742;BME280;53654;54.152;19.432;2023-11-18T01:37:54;102029.33;;;3.01;73.46
66742;BME280;53654;54.152;19.432;2023-11-18T01:40:23;102025.02;;;3.01;73.60
66742;BME280;53654;54.152;19.432;2023-11-18T01:42:52;102028.55;;;3.03;73.49
66742;BME280;53654;54.152;19.432;2023-11-18T01:45:20;102025.88;;;3.05;73.49
66742;BME280;53654;54.152;19.432;2023-11-18T01:47:48;102030.27;;;3.07;73.56
66742;BME280;53654;54.152;19.432;2023-11-18T01:50:17;102041.65;;;3.11;73.49
66742;BME280;53654;54.152;19.432;2023-11-18T01:52:47;102043.71;;;3.15;73.40
66742;BME280;53654;54.152;19.432;2023-11-18T01:55:16;102046.45;;;3.18;73.22
66742;BME280;53654;54.152;19.432;2023-11-18T01:57:44;102048.17;;;3.22;73.22
66742;BME280;53654;54.152;19.432;2023-11-18T02:00:14;102039.48;;;3.25;73.00
66742;BME280;53654;54.152;19.432;2023-11-18T02:02:46;102040.54;;;3.26;73.20
66742;BME280;53654;54.152;19.432;2023-11-18T02:05:15;102040.45;;;3.24;73.09
66742;BME280;53654;54.152;19.432;2023-11-18T02:07:45;102043.77;;;3.24;73.13
66742;BME280;53654;54.152;19.432;2023-11-18T02:10:14;102048.20;;;3.27;72.90
66742;BME280;53654;54.152;19.432;2023-11-18T02:13:04;102047.76;;;3.29;72.66
66742;BME280;53654;54.152;19.432;2023-11-18T02:15:35;102051.47;;;3.31;72.64
66742;BME280;53654;54.152;19.432;2023-11-18T02:18:06;102051.08;;;3.34;72.51
66742;BME280;53654;54.152;19.432;2023-11-18T02:20:38;102052.23;;;3.33;72.61
66742;BME280;53654;54.152;19.432;2023-11-18T02:23:07;102053.73;;;3.35;72.52
66742;BME280;53654;54.152;19.432;2023-11-18T02:25:43;102053.02;;;3.39;72.31
66742;BME280;53654;54.152;19.432;2023-11-18T02:28:13;102055.30;;;3.40;72.24
66742;BME280;53654;54.152;19.432;2023-11-18T02:30:42;102055.92;;;3.43;72.36
66742;BME280;53654;54.152;19.432;2023-11-18T02:35:53;102065.48;;;3.48;72.15
66742;BME280;53654;54.152;19.432;2023-11-18T02:38:29;102070.30;;;3.48;72.37
66742;BME280;53654;54.152;19.432;2023-11-18T02:41:04;102068.31;;;3.46;72.41
66742;BME280;53654;54.152;19.432;2023-11-18T02:43:38;102070.16;;;3.45;72.36
66742;BME280;53654;54.152;19.432;2023-11-18T02:46:08;102073.60;;;3.44;72.51
66742;BME280;53654;54.152;19.432;2023-11-18T02:48:37;102078.93;;;3.44;72.52
66742;BME280;53654;54.152;19.432;2023-11-18T02:51:06;102082.46;;;3.46;72.69
66742;BME280;53654;54.152;19.432;2023-11-18T02:53:35;102081.85;;;3.48;72.58
66742;BME280;53654;54.152;19.432;2023-11-18T02:56:05;102082.65;;;3.46;72.59
66742;BME280;53654;54.152;19.432;2023-11-18T02:58:34;102083.26;;;3.44;72.69
66742;BME280;53654;54.152;19.432;2023-11-18T03:01:03;102080.73;;;3.42;72.52
66742;BME280;53654;54.152;19.432;2023-11-18T03:03:32;102076.13;;;3.39;72.53
66742;BME280;53654;54.152;19.432;2023-11-18T03:06:00;102079.70;;;3.38;72.67
66742;BME280;53654;54.152;19.432;2023-11-18T03:08:29;102081.38;;;3.33;72.52
66742;BME280;53654;54.152;19.432;2023-11-18T03:10:57;102078.21;;;3.31;72.78
66742;BME280;53654;54.152;19.432;2023-11-18T03:13:26;102076.90;;;3.29;72.79
66742;BME280;53654;54.152;19.432;2023-11-18T03:15:55;102076.06;;;3.25;72.76
66742;BME280;53654;54.152;19.432;2023-11-18T03:18:24;102077.02;;;3.23;73.01
66742;BME280;53654;54.152;19.432;2023-11-18T03:20:53;102075.85;;;3.16;73.09
66742;BME280;53654;54.152;19.432;2023-11-18T03:23:21;102078.60;;;3.12;73.24
66742;BME280;53654;54.152;19.432;2023-11-18T03:25:49;102078.73;;;3.07;73.50
66742;BME280;53654;54.152;19.432;2023-11-18T03:28:19;102078.95;;;3.04;73.84
66742;BME280;53654;54.152;19.432;2023-11-18T03:30:47;102079.29;;;3.04;73.86
66742;BME280;53654;54.152;19.432;2023-11-18T03:33:16;102082.27;;;3.01;73.88
66742;BME280;53654;54.152;19.432;2023-11-18T03:35:44;102081.27;;;3.02;73.98
66742;BME280;53654;54.152;19.432;2023-11-18T03:38:12;102088.09;;;3.04;74.18
66742;BME280;53654;54.152;19.432;2023-11-18T03:40:41;102087.50;;;3.07;74.26
66742;BME280;53654;54.152;19.432;2023-11-18T03:43:09;102089.89;;;3.10;74.08
66742;BME280;53654;54.152;19.432;2023-11-18T03:45:39;102088.81;;;3.13;74.12
66742;BME280;53654;54.152;19.432;2023-11-18T03:48:08;102092.98;;;3.18;74.22
66742;BME280;53654;54.152;19.432;2023-11-18T03:50:36;102096.96;;;3.18;74.02
66742;BME280;53654;54.152;19.432;2023-11-18T03:53:04;102097.84;;;3.18;74.35
66742;BME280;53654;54.152;19.432;2023-11-18T03:55:33;102097.77;;;3.21;74.21
66742;BME280;53654;54.152;19.432;2023-11-18T03:58:01;102094.72;;;3.22;74.00
66742;BME280;53654;54.152;19.432;2023-11-18T04:00:30;102100.74;;;3.26;74.00
66742;BME280;53654;54.152;19.432;2023-11-18T04:02:59;102104.42;;;3.27;73.91
66742;BME280;53654;54.152;19.432;2023-11-18T04:05:28;102103.66;;;3.25;74.14
66742;BME280;53654;54.152;19.432;2023-11-18T04:07:56;102104.24;;;3.27;74.08
66742;BME280;53654;54.152;19.432;2023-11-18T04:10:25;102103.09;;;3.28;74.14
66742;BME280;53654;54.152;19.432;2023-11-18T04:12:53;102102.52;;;3.27;73.96
66742;BME280;53654;54.152;19.432;2023-11-18T04:15:22;102107.75;;;3.28;73.93
66742;BME280;53654;54.152;19.432;2023-11-18T04:17:50;102112.72;;;3.32;74.16
66742;BME280;53654;54.152;19.432;2023-11-18T04:20:18;102112.11;;;3.33;73.88
66742;BME280;53654;54.152;19.432;2023-11-18T04:22:46;102110.36;;;3.32;73.91
66742;BME280;53654;54.152;19.432;2023-11-18T04:25:14;102115.98;;;3.35;73.85
66742;BME280;53654;54.152;19.432;2023-11-18T04:27:43;102120.34;;;3.36;74.10
66742;BME280;53654;54.152;19.432;2023-11-18T04:30:14;102121.86;;;3.36;74.13
66742;BME280;53654;54.152;19.432;2023-11-18T04:32:42;102122.38;;;3.31;74.03
66742;BME280;53654;54.152;19.432;2023-11-18T04:35:11;102125.52;;;3.32;74.29
66742;BME280;53654;54.152;19.432;2023-11-18T04:37:41;102130.25;;;3.34;74.21
66742;BME280;53654;54.152;19.432;2023-11-18T04:40:11;102129.63;;;3.36;74.20
66742;BME280;53654;54.152;19.432;2023-11-18T04:42:41;102128.91;;;3.35;74.39
66742;BME280;53654;54.152;19.432;2023-11-18T04:45:11;102127.88;;;3.35;74.30
66742;BME280;53654;54.152;19.432;2023-11-18T04:47:39;102132.16;;;3.38;74.30
66742;BME280;53654;54.152;19.432;2023-11-18T04:50:10;102130.45;;;3.39;74.08
66742;BME280;53654;54.152;19.432;2023-11-18T04:52:39;102125.73;;;3.37;73.75
66742;BME280;53654;54.152;19.432;2023-11-18T04:55:08;102132.25;;;3.32;73.62
66742;BME280;53654;54.152;19.432;2023-11-18T04:57:38;102135.67;;;3.32;73.23
66742;BME280;53654;54.152;19.432;2023-11-18T05:00:08;102143.40;;;3.31;73.23
66742;BME280;53654;54.152;19.432;2023-11-18T05:02:40;102141.15;;;3.31;73.20
66742;BME280;53654;54.152;19.432;2023-11-18T05:05:09;102147.27;;;3.33;73.01
66742;BME280;53654;54.152;19.432;2023-11-18T05:07:37;102149.39;;;3.34;73.01
66742;BME280;53654;54.152;19.432;2023-11-18T05:10:07;102154.08;;;3.35;73.01
66742;BME280;53654;54.152;19.432;2023-11-18T05:12:39;102158.25;;;3.31;72.80
66742;BME280;53654;54.152;19.432;2023-11-18T05:15:08;102161.27;;;3.25;72.65
66742;BME280;53654;54.152;19.432;2023-11-18T05:17:37;102167.54;;;3.23;72.60
66742;BME280;53654;54.152;19.432;2023-11-18T05:20:06;102174.24;;;3.22;72.80
66742;BME280;53654;54.152;19.432;2023-11-18T05:22:38;102181.64;;;3.22;72.99
66742;BME280;53654;54.152;19.432;2023-11-18T05:25:07;102185.62;;;3.22;73.08
66742;BME280;53654;54.152;19.432;2023-11-18T05:27:36;102193.94;;;3.23;72.73
66742;BME280;53654;54.152;19.432;2023-11-18T05:30:06;102198.27;;;3.24;72.66
66742;BME280;53654;54.152;19.432;2023-11-18T05:32:34;102199.48;;;3.23;72.40
66742;BME280;53654;54.152;19.432;2023-11-18T05:35:04;102200.05;;;3.25;72.27
66742;BME280;53654;54.152;19.432;2023-11-18T05:37:33;102195.10;;;3.22;71.96
66742;BME280;53654;54.152;19.432;2023-11-18T05:40:04;102192.56;;;3.19;71.57
66742;BME280;53654;54.152;19.432;2023-11-18T05:42:36;102198.33;;;3.17;71.59
66742;BME280;53654;54.152;19.432;2023-11-18T05:45:08;102197.39;;;3.12;71.92
66742;BME280;53654;54.152;19.432;2023-11-18T05:47:45;102195.30;;;3.07;71.94
66742;BME280;53654;54.152;19.432;2023-11-18T05:50:13;102200.74;;;3.06;71.98
66742;BME280;53654;54.152;19.432;2023-11-18T05:52:43;102206.95;;;3.02;71.54
66742;BME280;53654;54.152;19.432;2023-11-18T05:55:11;102208.63;;;2.97;71.52
66742;BME280;53654;54.152;19.432;2023-11-18T05:57:39;102210.55;;;2.94;71.73
66742;BME280;53654;54.152;19.432;2023-11-18T06:00:08;102213.39;;;2.92;71.72
66742;BME280;53654;54.152;19.432;2023-11-18T06:02:39;102213.76;;;2.93;71.78
66742;BME280;53654;54.152;19.432;2023-11-18T06:05:09;102208.15;;;2.95;71.74
66742;BME280;53654;54.152;19.432;2023-11-18T06:07:38;102211.52;;;2.97;71.72
66742;BME280;53654;54.152;19.432;2023-11-18T06:10:11;102215.46;;;2.96;71.46
66742;BME280;53654;54.152;19.432;2023-11-18T06:12:40;102214.61;;;2.96;71.53
66742;BME280;53654;54.152;19.432;2023-11-18T06:15:09;102218.01;;;2.99;71.82
66742;BME280;53654;54.152;19.432;2023-11-18T06:17:37;102221.92;;;3.02;72.25
66742;BME280;53654;54.152;19.432;2023-11-18T06:20:07;102224.94;;;3.04;72.43
66742;BME280;53654;54.152;19.432;2023-11-18T06:22:36;102224.20;;;3.02;72.83
66742;BME280;53654;54.152;19.432;2023-11-18T06:25:04;102225.70;;;2.98;72.77
66742;BME280;53654;54.152;19.432;2023-11-18T06:27:35;102220.14;;;2.93;72.33
66742;BME280;53654;54.152;19.432;2023-11-18T06:30:04;102227.31;;;2.91;72.07
66742;BME280;53654;54.152;19.432;2023-11-18T06:32:34;102233.82;;;2.90;72.23
66742;BME280;53654;54.152;19.432;2023-11-18T06:35:03;102243.02;;;2.92;72.19
66742;BME280;53654;54.152;19.432;2023-11-18T06:37:33;102250.55;;;2.95;72.21
66742;BME280;53654;54.152;19.432;2023-11-18T06:40:03;102259.46;;;2.97;72.30
66742;BME280;53654;54.152;19.432;2023-11-18T06:42:34;102261.08;;;2.99;72.62
66742;BME280;53654;54.152;19.432;2023-11-18T06:45:05;102266.81;;;2.99;72.34
66742;BME280;53654;54.152;19.432;2023-11-18T06:47:35;102264.61;;;3.00;72.75
66742;BME280;53654;54.152;19.432;2023-11-18T06:50:05;102261.52;;;3.00;73.08
66742;BME280;53654;54.152;19.432;2023-11-18T06:52:38;102266.05;;;3.01;73.38
66742;BME280;53654;54.152;19.432;2023-11-18T06:55:07;102262.55;;;3.04;73.62
66742;BME280;53654;54.152;19.432;2023-11-18T06:57:36;102260.13;;;3.08;73.96
66742;BME280;53654;54.152;19.432;2023-11-18T07:00:05;102267.15;;;3.10;73.20
66742;BME280;53654;54.152;19.432;2023-11-18T07:02:38;102267.48;;;3.10;72.02
66742;BME280;53654;54.152;19.432;2023-11-18T07:05:06;102271.52;;;3.11;71.86
66742;BME280;53654;54.152;19.432;2023-11-18T07:07:35;102276.67;;;3.11;71.54
66742;BME280;53654;54.152;19.432;2023-11-18T07:10:04;102279.09;;;3.11;71.11
66742;BME280;53654;54.152;19.432;2023-11-18T07:12:33;102273.02;;;3.14;70.73
66742;BME280;53654;54.152;19.432;2023-11-18T07:15:06;102270.27;;;3.14;70.09
66742;BME280;53654;54.152;19.432;2023-11-18T07:17:35;102271.05;;;3.12;70.05
66742;BME280;53654;54.152;19.432;2023-11-18T07:20:03;102277.02;;;3.11;70.44
66742;BME280;53654;54.152;19.432;2023-11-18T07:22:34;102282.01;;;3.11;70.59
66742;BME280;53654;54.152;19.432;2023-11-18T07:25:03;102290.56;;;3.13;71.25
66742;BME280;53654;54.152;19.432;2023-11-18T07:27:35;102290.59;;;3.14;71.40
66742;BME280;53654;54.152;19.432;2023-11-18T07:30:04;102292.27;;;3.16;71.35
66742;BME280;53654;54.152;19.432;2023-11-18T07:32:38;102292.23;;;3.16;71.80
66742;BME280;53654;54.152;19.432;2023-11-18T07:35:08;102290.51;;;3.16;71.34
66742;BME280;53654;54.152;19.432;2023-11-18T07:37:37;102289.05;;;3.14;71.07
66742;BME280;53654;54.152;19.432;2023-11-18T07:40:07;102287.09;;;3.16;71.09
66742;BME280;53654;54.152;19.432;2023-11-18T07:42:36;102285.56;;;3.21;71.09
66742;BME280;53654;54.152;19.432;2023-11-18T07:45:05;102286.98;;;3.25;70.81
66742;BME280;53654;54.152;19.432;2023-11-18T07:47:45;102281.85;;;3.26;70.66
66742;BME280;53654;54.152;19.432;2023-11-18T07:50:18;102285.25;;;3.29;70.67
66742;BME280;53654;54.152;19.432;2023-11-18T07:52:48;102286.58;;;3.31;70.76
66742;BME280;53654;54.152;19.432;2023-11-18T07:55:17;102286.68;;;3.34;70.94
66742;BME280;53654;54.152;19.432;2023-11-18T07:57:46;102294.39;;;3.36;70.73
66742;BME280;53654;54.152;19.432;2023-11-18T08:00:15;102304.02;;;3.36;70.46
66742;BME280;53654;54.152;19.432;2023-11-18T08:02:43;102311.14;;;3.37;70.32
66742;BME280;53654;54.152;19.432;2023-11-18T08:05:12;102317.88;;;3.33;69.93
66742;BME280;53654;54.152;19.432;2023-11-18T08:07:47;102316.42;;;3.31;69.94
66742;BME280;53654;54.152;19.432;2023-11-18T08:10:15;102316.66;;;3.33;70.08
66742;BME280;53654;54.152;19.432;2023-11-18T08:12:47;102316.45;;;3.36;70.20
66742;BME280;53654;54.152;19.432;2023-11-18T08:15:16;102311.61;;;3.39;70.30
66742;BME280;53654;54.152;19.432;2023-11-18T08:17:44;102311.53;;;3.41;70.32
66742;BME280;53654;54.152;19.432;2023-11-18T08:20:12;102314.65;;;3.45;70.28
66742;BME280;53654;54.152;19.432;2023-11-18T08:22:44;102312.66;;;3.47;70.21
66742;BME280;53654;54.152;19.432;2023-11-18T08:25:13;102309.45;;;3.49;69.95
66742;BME280;53654;54.152;19.432;2023-11-18T08:27:43;102305.55;;;3.50;69.65
66742;BME280;53654;54.152;19.432;2023-11-18T08:30:14;102300.81;;;3.48;69.24
66742;BME280;53654;54.152;19.432;2023-11-18T08:32:46;102298.06;;;3.49;69.41
66742;BME280;53654;54.152;19.432;2023-11-18T08:35:15;102301.46;;;3.51;69.48
66742;BME280;53654;54.152;19.432;2023-11-18T08:37:44;102311.25;;;3.54;69.51
66742;BME280;53654;54.152;19.432;2023-11-18T08:40:13;102317.02;;;3.60;69.48
66742;BME280;53654;54.152;19.432;2023-11-18T08:42:52;102311.23;;;3.66;70.17
66742;BME280;53654;54.152;19.432;2023-11-18T08:45:23;102312.24;;;3.69;69.80
66742;BME280;53654;54.152;19.432;2023-11-18T08:47:59;102317.80;;;3.70;69.74
66742;BME280;53654;54.152;19.432;2023-11-18T08:50:29;102325.00;;;3.72;70.03
66742;BME280;53654;54.152;19.432;2023-11-18T08:52:59;102325.34;;;3.76;69.77
66742;BME280;53654;54.152;19.432;2023-11-18T08:55:29;102323.16;;;3.77;69.35
66742;BME280;53654;54.152;19.432;2023-11-18T08:58:11;102323.80;;;3.80;69.30
66742;BME280;53654;54.152;19.432;2023-11-18T09:00:57;102320.89;;;3.85;69.15
66742;BME280;53654;54.152;19.432;2023-11-18T09:03:43;102329.64;;;3.87;68.95
66742;BME280;53654;54.152;19.432;2023-11-18T09:06:11;102331.88;;;3.91;68.81
66742;BME280;53654;54.152;19.432;2023-11-18T09:08:47;102330.46;;;3.94;68.57
66742;BME280;53654;54.152;19.432;2023-11-18T09:11:23;102337.02;;;3.94;68.27
66742;BME280;53654;54.152;19.432;2023-11-18T09:13:53;102336.16;;;3.94;68.12
66742;BME280;53654;54.152;19.432;2023-11-18T09:16:22;102341.77;;;3.96;68.09
66742;BME280;53654;54.152;19.432;2023-11-18T09:18:53;102337.23;;;3.95;67.79
66742;BME280;53654;54.152;19.432;2023-11-18T09:21:21;102338.63;;;3.96;67.87
66742;BME280;53654;54.152;19.432;2023-11-18T09:23:57;102339.58;;;3.97;68.04
66742;BME280;53654;54.152;19.432;2023-11-18T09:26:25;102342.98;;;4.00;67.70
66742;BME280;53654;54.152;19.432;2023-11-18T09:28:58;102342.33;;;4.01;67.52
66742;BME280;53654;54.152;19.432;2023-11-18T09:31:30;102344.59;;;4.01;67.47
66742;BME280;53654;54.152;19.432;2023-11-18T09:34:01;102345.14;;;4.02;67.21
66742;BME280;53654;54.152;19.432;2023-11-18T09:36:34;102348.69;;;4.04;66.92
66742;BME280;53654;54.152;19.432;2023-11-18T09:39:04;102348.95;;;4.06;66.66
66742;BME280;53654;54.152;19.432;2023-11-18T09:41:32;102355.67;;;4.10;66.61
66742;BME280;53654;54.152;19.432;2023-11-18T09:44:06;102350.27;;;4.13;66.40
66742;BME280;53654;54.152;19.432;2023-11-18T09:46:35;102356.91;;;4.14;66.67
66742;BME280;53654;54.152;19.432;2023-11-18T09:49:27;102351.84;;;4.13;66.73
66742;BME280;53654;54.152;19.432;2023-11-18T09:52:04;102351.67;;;4.13;67.03
66742;BME280;53654;54.152;19.432;2023-11-18T09:54:40;102356.52;;;4.18;66.84
66742;BME280;53654;54.152;19.432;2023-11-18T09:57:19;102353.20;;;4.21;66.51
66742;BME280;53654;54.152;19.432;2023-11-18T10:00:07;102357.23;;;4.22;66.76
66742;BME280;53654;54.152;19.432;2023-11-18T10:02:49;102362.36;;;4.21;66.59
66742;BME280;53654;54.152;19.432;2023-11-18T10:05:20;102361.48;;;4.25;66.64
66742;BME280;53654;54.152;19.432;2023-11-18T10:07:51;102367.16;;;4.28;66.38
66742;BME280;53654;54.152;19.432;2023-11-18T10:10:20;102366.48;;;4.33;66.91
66742;BME280;53654;54.152;19.432;2023-11-18T10:12:52;102368.73;;;4.32;66.93
66742;BME280;53654;54.152;19.432;2023-11-18T10:15:22;102368.23;;;4.33;66.99
66742;BME280;53654;54.152;19.432;2023-11-18T10:17:54;102366.08;;;4.31;66.78
66742;BME280;53654;54.152;19.432;2023-11-18T10:23:16;102367.91;;;4.26;67.38
66742;BME280;53654;54.152;19.432;2023-11-18T10:25:51;102367.43;;;4.27;67.73
66742;BME280;53654;54.152;19.432;2023-11-18T10:28:29;102365.91;;;4.27;67.88
66742;BME280;53654;54.152;19.432;2023-11-18T10:31:02;102367.40;;;4.30;67.84
66742;BME280;53654;54.152;19.432;2023-11-18T10:33:40;102368.55;;;4.32;67.61
66742;BME280;53654;54.152;19.432;2023-11-18T10:36:22;102369.35;;;4.35;67.48
66742;BME280;53654;54.152;19.432;2023-11-18T10:38:52;102368.81;;;4.38;67.74
66742;BME280;53654;54.152;19.432;2023-11-18T10:41:24;102370.69;;;4.42;68.23
66742;BME280;53654;54.152;19.432;2023-11-18T10:44:05;102369.73;;;4.44;68.05
66742;BME280;53654;54.152;19.432;2023-11-18T10:46:35;102371.36;;;4.46;68.25
66742;BME280;53654;54.152;19.432;2023-11-18T10:49:05;102378.44;;;4.50;68.36
66742;BME280;53654;54.152;19.432;2023-11-18T10:51:38;102379.54;;;4.51;68.74
66742;BME280;53654;54.152;19.432;2023-11-18T10:54:09;102379.39;;;4.52;68.72
66742;BME280;53654;54.152;19.432;2023-11-18T10:56:49;102386.48;;;4.56;68.65
66742;BME280;53654;54.152;19.432;2023-11-18T10:59:18;102392.74;;;4.57;68.78
66742;BME280;53654;54.152;19.432;2023-11-18T11:01:47;102395.50;;;4.57;69.04
66742;BME280;53654;54.152;19.432;2023-11-18T11:04:18;102392.52;;;4.55;68.95
66742;BME280;53654;54.152;19.432;2023-11-18T11:06:50;102398.16;;;4.54;68.78
66742;BME280;53654;54.152;19.432;2023-11-18T11:09:23;102400.41;;;4.50;68.77
66742;BME280;53654;54.152;19.432;2023-11-18T11:12:11;102405.45;;;4.47;69.13
66742;BME280;53654;54.152;19.432;2023-11-18T11:14:58;102403.97;;;4.44;69.37
66742;BME280;53654;54.152;19.432;2023-11-18T11:17:28;102402.08;;;4.44;68.80
66742;BME280;53654;54.152;19.432;2023-11-18T11:20:07;102398.20;;;4.47;69.23
66742;BME280;53654;54.152;19.432;2023-11-18T11:31:21;102420.05;;;4.40;69.45
66742;BME280;53654;54.152;19.432;2023-11-18T11:34:04;102418.59;;;4.39;69.57
66742;BME280;53654;54.152;19.432;2023-11-18T11:36:41;102414.20;;;4.41;69.88
66742;BME280;53654;54.152;19.432;2023-11-18T11:39:10;102415.60;;;4.46;69.96
66742;BME280;53654;54.152;19.432;2023-11-18T11:41:52;102411.04;;;4.48;69.63
66742;BME280;53654;54.152;19.432;2023-11-18T11:44:25;102413.92;;;4.50;69.65
66742;BME280;53654;54.152;19.432;2023-11-18T11:47:00;102420.03;;;4.48;69.91
66742;BME280;53654;54.152;19.432;2023-11-18T11:49:38;102423.45;;;4.47;69.94
66742;BME280;53654;54.152;19.432;2023-11-18T11:52:44;102425.09;;;4.45;69.77
66742;BME280;53654;54.152;19.432;2023-11-18T11:55:38;102430.88;;;4.43;69.87
66742;BME280;53654;54.152;19.432;2023-11-18T11:58:35;102436.02;;;4.38;69.74
66742;BME280;53654;54.152;19.432;2023-11-18T12:01:21;102434.50;;;4.35;69.82
66742;BME280;53654;54.152;19.432;2023-11-18T12:03:53;102439.19;;;4.32;69.57
66742;BME280;53654;54.152;19.432;2023-11-18T12:06:26;102438.08;;;4.34;69.50
66742;BME280;53654;54.152;19.432;2023-11-18T12:08:56;102433.63;;;4.39;69.29
66742;BME280;53654;54.152;19.432;2023-11-18T12:11:25;102437.50;;;4.44;69.22
66742;BME280;53654;54.152;19.432;2023-11-18T12:17:04;102444.79;;;4.45;69.28
66742;BME280;53654;54.152;19.432;2023-11-18T12:19:41;102441.80;;;4.44;69.87
66742;BME280;53654;54.152;19.432;2023-11-18T12:22:20;102439.20;;;4.48;69.90
66742;BME280;53654;54.152;19.432;2023-11-18T12:27:42;102435.86;;;4.50;69.72
66742;BME280;53654;54.152;19.432;2023-11-18T12:40:57;102430.56;;;4.48;70.58
66742;BME280;53654;54.152;19.432;2023-11-18T12:48:43;102438.58;;;4.53;70.54
66742;BME280;53654;54.152;19.432;2023-11-18T12:51:12;102443.47;;;4.59;70.52
66742;BME280;53654;54.152;19.432;2023-11-18T12:53:50;102446.37;;;4.62;70.38
66742;BME280;53654;54.152;19.432;2023-11-18T12:56:22;102445.60;;;4.64;70.47
66742;BME280;53654;54.152;19.432;2023-11-18T12:58:53;102450.45;;;4.64;70.29
66742;BME280;53654;54.152;19.432;2023-11-18T13:01:23;102452.47;;;4.59;70.23
66742;BME280;53654;54.152;19.432;2023-11-18T13:03:51;102453.73;;;4.56;70.42
66742;BME280;53654;54.152;19.432;2023-11-18T13:06:21;102450.70;;;4.54;70.61
66742;BME280;53654;54.152;19.432;2023-11-18T13:08:53;102451.42;;;4.55;70.65
66742;BME280;53654;54.152;19.432;2023-11-18T13:11:22;102450.17;;;4.58;70.55
66742;BME280;53654;54.152;19.432;2023-11-18T13:13:52;102447.56;;;4.57;70.42
66742;BME280;53654;54.152;19.432;2023-11-18T13:16:21;102450.52;;;4.58;69.94
66742;BME280;53654;54.152;19.432;2023-11-18T13:18:50;102448.30;;;4.58;69.61
66742;BME280;53654;54.152;19.432;2023-11-18T13:21:20;102444.68;;;4.59;68.93
66742;BME280;53654;54.152;19.432;2023-11-18T13:23:53;102442.63;;;4.59;68.97
66742;BME280;53654;54.152;19.432;2023-11-18T13:26:22;102442.83;;;4.60;68.83
66742;BME280;53654;54.152;19.432;2023-11-18T13:28:52;102443.20;;;4.60;68.55
66742;BME280;53654;54.152;19.432;2023-11-18T13:31:22;102438.14;;;4.59;68.16
66742;BME280;53654;54.152;19.432;2023-11-18T13:33:50;102437.12;;;4.60;67.74
66742;BME280;53654;54.152;19.432;2023-11-18T13:36:19;102438.40;;;4.61;67.23
66742;BME280;53654;54.152;19.432;2023-11-18T13:38:49;102435.86;;;4.63;67.21
66742;BME280;53654;54.152;19.432;2023-11-18T13:41:30;102431.85;;;4.62;67.20
66742;BME280;53654;54.152;19.432;2023-11-18T13:44:00;102432.41;;;4.59;66.62
66742;BME280;53654;54.152;19.432;2023-11-18T13:46:29;102435.67;;;4.58;66.65